Time;durP1;ratioP1;P1;durP2;ratioP2;P2;SDS_P1;SDS_P2;PMS_P1;PMS_P2;Temp;Humidity;BMP_temperature;BMP_pressure;BME280_temperature;BME280_humidity;BME280_pressure;Samples;Min_cycle;Max_cycle;Signal;HPM_P1;HPM_P2
2021/04/29 07:48:12;;;;;;;67.00;25.13;;;11.10;99.90;;;;;;12096808;27;20713;-75
2021/04/29 07:54:00;;;;;;;59.83;24.60;;;11.50;99.90;;;;;;12000707;28;20063;-75
2021/04/29 07:59:46;;;;;;;51.58;22.27;;;12.20;99.90;;;;;;12001183;28;20045;-76
2021/04/29 08:05:35;;;;;;;54.75;23.10;;;12.50;99.90;;;;;;11994960;28;20065;-76
2021/04/29 08:11:21;;;;;;;53.20;20.90;;;12.70;99.90;;;;;;11982519;28;20566;-77
2021/04/29 08:17:08;;;;;;;56.65;23.77;;;12.90;99.90;;;;;;11954128;28;20045;-76
2021/04/29 08:22:57;;;;;;;47.08;21.90;;;12.90;99.90;;;;;;11987743;28;20068;-76
2021/04/29 08:28:43;;;;;;;49.67;22.10;;;13.00;99.90;;;;;;11972262;28;20065;-77
2021/04/29 08:34:29;;;;;;;48.60;19.27;;;13.20;99.90;;;;;;11978154;28;20057;-77
2021/04/29 08:40:16;;;;;;;48.10;19.02;;;13.20;99.90;;;;;;11974653;28;20539;-82
2021/04/29 08:46:05;;;;;;;54.70;19.83;;;13.50;99.90;;;;;;11978427;28;20057;-82
2021/04/29 08:51:54;;;;;;;49.47;18.83;;;13.50;99.90;;;;;;11952023;28;20080;-82
2021/04/29 08:57:43;;;;;;;39.35;17.70;;;13.50;99.90;;;;;;11929050;28;20054;-81
2021/04/29 09:03:31;;;;;;;45.95;17.48;;;13.60;99.90;;;;;;11973689;28;20049;-80
2021/04/29 09:09:19;;;;;;;47.70;16.60;;;13.70;99.90;;;;;;11981862;28;20152;-82
2021/04/29 09:15:08;;;;;;;45.30;18.10;;;13.90;99.90;;;;;;11990352;28;20064;-78
2021/04/29 09:20:57;;;;;;;44.92;16.08;;;14.10;99.90;;;;;;11928976;28;20058;-76
2021/04/29 09:26:44;;;;;;;34.72;15.23;;;14.20;99.90;;;;;;11953206;28;20081;-77
2021/04/29 09:32:33;;;;;;;33.42;14.40;;;13.80;99.90;;;;;;11930142;28;20420;-81
2021/04/29 09:38:20;;;;;;;34.40;13.90;;;13.60;99.90;;;;;;11951208;28;20102;-82
2021/04/29 09:44:08;;;;;;;36.80;17.23;;;13.30;99.60;;;;;;11912841;28;20128;-80
2021/04/29 09:49:58;;;;;;;44.78;19.00;;;13.70;99.90;;;;;;11918173;28;20115;-77
2021/04/29 09:55:49;;;;;;;24.63;11.20;;;13.90;98.00;;;;;;11904924;28;20745;-78
2021/04/29 10:01:35;;;;;;;31.58;11.68;;;14.30;95.30;;;;;;11915632;28;20075;-78
2021/04/29 10:07:31;;;;;;;27.77;12.82;;;14.40;94.30;;;;;;11910587;28;20601;-77
2021/04/29 10:13:18;;;;;;;22.15;10.55;;;14.20;93.80;;;;;;11856147;28;20057;-78
2021/04/29 10:19:05;;;;;;;16.40;10.38;;;14.30;92.80;;;;;;11898508;28;20221;-81
2021/04/29 10:24:53;;;;;;;26.38;10.27;;;14.70;91.40;;;;;;11960987;28;20055;-81
2021/04/29 10:30:40;;;;;;;19.25;10.05;;;14.50;90.60;;;;;;11891826;28;20064;-81
2021/04/29 10:36:37;;;;;;;19.65;9.45;;;14.40;87.50;;;;;;11964052;28;20049;-81
2021/04/29 10:42:25;;;;;;;15.23;9.05;;;14.70;89.20;;;;;;11959089;28;20056;-80
2021/04/29 10:48:13;;;;;;;12.20;8.02;;;14.40;84.30;;;;;;11940672;28;20056;-81
2021/04/29 10:54:19;;;;;;;14.07;8.45;;;14.50;83.30;;;;;;11959648;28;20045;-81
2021/04/29 11:00:08;;;;;;;12.77;8.85;;;14.50;84.90;;;;;;11937500;28;20061;-81
2021/04/29 11:06:08;;;;;;;17.52;8.48;;;14.50;85.20;;;;;;11956000;28;20409;-81
2021/04/29 11:12:02;;;;;;;13.55;8.38;;;14.60;84.70;;;;;;11939277;28;20611;-80
2021/04/29 11:18:05;;;;;;;13.45;7.90;;;14.60;83.70;;;;;;11924882;28;20057;-80
2021/04/29 11:23:52;;;;;;;9.90;7.00;;;14.70;82.50;;;;;;11912593;28;20055;-80
2021/04/29 11:29:39;;;;;;;13.52;8.57;;;14.60;82.80;;;;;;11903383;28;20045;-81
2021/04/29 11:35:28;;;;;;;18.15;8.30;;;14.90;79.50;;;;;;11908097;28;20049;-80
2021/04/29 11:41:15;;;;;;;16.52;8.10;;;14.90;78.60;;;;;;11899531;28;20053;-81
2021/04/29 11:47:12;;;;;;;17.73;7.90;;;15.40;75.30;;;;;;11896740;28;20054;-80
2021/04/29 11:53:09;;;;;;;11.88;7.93;;;15.50;73.90;;;;;;11897889;28;20505;-81
2021/04/29 11:59:02;;;;;;;16.08;7.63;;;15.70;73.40;;;;;;11901711;28;20050;-82
2021/04/29 12:04:50;;;;;;;13.40;8.02;;;15.50;70.90;;;;;;11901036;28;20049;-83
2021/04/29 12:10:51;;;;;;;14.32;7.82;;;15.70;69.80;;;;;;11904349;28;20041;-82
2021/04/29 12:16:38;;;;;;;12.98;7.63;;;16.30;66.90;;;;;;11897961;28;20046;-80
2021/04/29 12:22:26;;;;;;;8.73;7.05;;;16.70;66.20;;;;;;11906714;28;20120;-82
2021/04/29 12:28:15;;;;;;;18.98;10.82;;;16.70;65.40;;;;;;11909427;28;20145;-81
2021/04/29 12:34:04;;;;;;;13.75;8.15;;;16.70;63.90;;;;;;11920169;28;20072;-81
2021/04/29 12:39:51;;;;;;;11.45;8.00;;;16.60;64.20;;;;;;11910420;28;20081;-81
2021/04/29 12:45:50;;;;;;;11.00;8.73;;;16.30;64.00;;;;;;11901870;28;20049;-82
2021/04/29 12:51:37;;;;;;;16.85;10.95;;;16.60;65.10;;;;;;11898522;28;20053;-77
2021/04/29 12:57:25;;;;;;;15.40;9.18;;;16.60;62.30;;;;;;11908820;28;20049;-82
2021/04/29 13:03:13;;;;;;;18.10;9.70;;;16.60;62.10;;;;;;11914216;28;20041;-80
2021/04/29 13:09:02;;;;;;;13.15;7.47;;;16.80;62.00;;;;;;11917684;28;20062;-79
2021/04/29 13:14:58;;;;;;;9.57;7.05;;;16.70;60.40;;;;;;11904214;28;20556;-80
2021/04/29 13:20:46;;;;;;;17.38;8.45;;;16.80;62.10;;;;;;11899487;28;20060;-75
2021/04/29 13:26:32;;;;;;;14.65;7.53;;;16.70;61.00;;;;;;11899842;28;20050;-76
2021/04/29 13:32:19;;;;;;;13.02;6.95;;;16.60;61.60;;;;;;11902249;28;20525;-76
2021/04/29 13:38:06;;;;;;;15.57;7.43;;;16.70;59.60;;;;;;11896480;28;20049;-75
2021/04/29 13:43:52;;;;;;;13.95;6.82;;;16.70;61.00;;;;;;11911851;28;20472;-75
2021/04/29 13:49:39;;;;;;;15.85;6.53;;;16.50;59.60;;;;;;11901862;28;20045;-75
2021/04/29 13:55:26;;;;;;;14.57;7.55;;;16.10;61.40;;;;;;11904718;28;20050;-75
2021/04/29 14:07:24;;;;;;;12.73;6.90;;;16.30;59.70;;;;;;11962501;28;20034;-77
2021/04/29 14:13:11;;;;;;;16.55;6.80;;;16.20;58.90;;;;;;11920510;28;20054;-76
2021/04/29 14:18:58;;;;;;;10.88;6.43;;;16.10;59.20;;;;;;11936661;28;20065;-74
2021/04/29 14:24:45;;;;;;;11.35;6.68;;;15.90;59.10;;;;;;11935914;28;20050;-75
2021/04/29 14:30:34;;;;;;;11.95;5.95;;;16.00;59.30;;;;;;11904801;28;20081;-75
2021/04/29 14:36:20;;;;;;;12.55;5.88;;;16.00;59.30;;;;;;11945162;28;20068;-76
2021/04/29 14:42:07;;;;;;;11.50;5.70;;;16.20;59.40;;;;;;11910118;28;20440;-73
2021/04/29 14:47:55;;;;;;;16.00;5.63;;;16.40;59.60;;;;;;11897015;28;20050;-76
2021/04/29 14:53:41;;;;;;;16.70;5.95;;;16.50;59.00;;;;;;11923609;28;20054;-74
2021/04/29 14:59:27;;;;;;;18.48;6.43;;;16.80;59.50;;;;;;11896282;28;20096;-73
2021/04/29 15:05:15;;;;;;;13.05;6.80;;;17.30;59.50;;;;;;11918542;28;20568;-76
2021/04/29 15:11:01;;;;;;;14.55;6.57;;;17.50;57.60;;;;;;11930133;28;20073;-75
2021/04/29 15:16:47;;;;;;;303.85;175.85;;;17.50;58.20;;;;;;11948517;28;20049;-78
2021/04/29 15:22:35;;;;;;;17.15;10.25;;;17.30;58.10;;;;;;11913433;28;20413;-74
2021/04/29 15:28:21;;;;;;;11.70;5.68;;;17.30;58.00;;;;;;11933416;28;20057;-73
2021/04/29 15:34:08;;;;;;;10.57;6.28;;;17.40;57.90;;;;;;11945803;28;20052;-72
2021/04/29 15:39:55;;;;;;;11.93;5.97;;;17.10;56.20;;;;;;11902067;28;20050;-73
2021/04/29 15:45:41;;;;;;;9.00;5.53;;;17.00;57.10;;;;;;11940694;28;20045;-76
2021/04/29 15:51:30;;;;;;;13.93;5.40;;;17.00;58.00;;;;;;11912642;28;20060;-77
2021/04/29 15:57:17;;;;;;;14.73;5.10;;;17.10;57.30;;;;;;11930622;28;20465;-77
2021/04/29 16:03:04;;;;;;;11.02;5.50;;;17.50;57.70;;;;;;11934515;28;20148;-76
2021/04/29 16:08:50;;;;;;;11.93;5.43;;;17.30;56.50;;;;;;11941373;28;20420;-76
2021/04/29 16:14:38;;;;;;;15.75;6.00;;;16.90;58.10;;;;;;11943940;28;20053;-77
2021/04/29 16:20:25;;;;;;;18.30;7.20;;;16.90;58.10;;;;;;11922308;28;20060;-76
2021/04/29 16:26:12;;;;;;;7.22;4.25;;;16.70;58.10;;;;;;11936482;28;20091;-77
2021/04/29 16:31:59;;;;;;;11.88;5.07;;;16.60;58.00;;;;;;11944146;28;20049;-78
2021/04/29 16:37:46;;;;;;;12.13;4.70;;;16.60;57.80;;;;;;11938189;28;20054;-78
2021/04/29 16:43:32;;;;;;;9.88;4.65;;;16.70;56.50;;;;;;11934839;28;20628;-77
2021/04/29 16:49:19;;;;;;;11.20;4.20;;;16.70;57.20;;;;;;11874392;28;21084;-77
2021/04/29 16:55:08;;;;;;;10.30;4.65;;;16.90;57.10;;;;;;11910732;28;20428;-75
2021/04/29 17:00:54;;;;;;;10.05;5.05;;;16.70;56.40;;;;;;11954451;28;20072;-78
2021/04/29 17:06:42;;;;;;;10.82;4.50;;;16.60;56.60;;;;;;11931759;28;21066;-76
2021/04/29 17:12:36;;;;;;;10.27;4.13;;;16.10;57.50;;;;;;11960610;28;20053;-76
2021/04/29 17:18:22;;;;;;;8.20;4.47;;;16.10;58.70;;;;;;11949847;28;20053;-76
2021/04/29 17:24:11;;;;;;;11.82;4.20;;;16.10;59.60;;;;;;11967630;28;20041;-76
2021/04/29 17:29:58;;;;;;;11.27;4.97;;;16.20;60.10;;;;;;11954482;28;20057;-76
2021/04/29 17:35:44;;;;;;;12.77;4.63;;;16.30;59.60;;;;;;11927645;28;20480;-76
2021/04/29 17:41:32;;;;;;;942.42;537.08;;;16.50;58.80;;;;;;11943949;28;20049;-78
2021/04/29 17:47:18;;;;;;;11.73;5.35;;;16.60;58.80;;;;;;11901288;28;20060;-77
2021/04/29 17:53:05;;;;;;;8.43;4.03;;;16.60;59.00;;;;;;11906179;28;20057;-77
2021/04/29 17:58:52;;;;;;;20.67;4.97;;;16.60;59.40;;;;;;11882984;28;20428;-77
2021/04/29 18:04:38;;;;;;;16.08;3.92;;;16.50;58.80;;;;;;11905021;28;20053;-78
2021/04/29 18:10:25;;;;;;;15.93;4.68;;;16.10;59.60;;;;;;11907752;28;20384;-78
2021/04/29 18:16:14;;;;;;;13.52;5.07;;;16.00;60.30;;;;;;11900170;28;20050;-77
2021/04/29 18:22:01;;;;;;;11.15;4.25;;;15.70;60.50;;;;;;11906153;28;20050;-78
2021/04/29 18:27:49;;;;;;;12.30;5.18;;;15.60;61.80;;;;;;11898318;28;20050;-77
2021/04/29 18:33:37;;;;;;;13.23;4.68;;;15.60;61.80;;;;;;11903299;28;20053;-76
2021/04/29 18:39:24;;;;;;;14.10;4.38;;;15.70;62.30;;;;;;11904156;28;20050;-79
2021/04/29 18:45:12;;;;;;;14.30;4.65;;;15.70;62.00;;;;;;11906634;28;20050;-77
2021/04/29 18:50:59;;;;;;;14.05;4.53;;;15.60;62.60;;;;;;11902285;28;20054;-77
2021/04/29 18:56:45;;;;;;;12.95;4.43;;;15.60;62.50;;;;;;11948580;28;20052;-78
2021/04/29 19:02:32;;;;;;;19.45;6.22;;;15.50;63.10;;;;;;11942607;28;20050;-76
2021/04/29 19:08:21;;;;;;;28.58;7.10;;;15.50;63.30;;;;;;11944438;28;20103;-78
2021/04/29 19:14:08;;;;;;;11.85;4.10;;;15.40;63.70;;;;;;11948343;28;20050;-78
2021/04/29 19:19:54;;;;;;;6.55;4.13;;;15.40;64.10;;;;;;11903282;28;20467;-77
2021/04/29 19:25:42;;;;;;;11.27;5.25;;;15.30;64.20;;;;;;11894919;28;20053;-76
2021/04/29 19:31:28;;;;;;;12.07;4.47;;;15.20;64.40;;;;;;11920425;28;20479;-79
2021/04/29 19:37:14;;;;;;;27.25;10.10;;;15.10;65.50;;;;;;11967146;28;20061;-81
2021/04/29 19:43:04;;;;;;;15.70;5.40;;;15.10;66.40;;;;;;11960136;28;20058;-77
